Buggenhout, Belgium
Current Conditions -  °F | °C
As of 9:20 AM on Tuesday 21 Oct 2014 (Local Time) from EBAW Reporting Station
Rain Showers Rain Showers  
Wind Chill: 55°   Ceiling: 3900
Heat Index: 55°   Visibility: 6mi
Dew Point: 50°   Wind: 15mph
Humidity: 82%   Direction: 210°SSW
Pressure: 29.71"   Gusts: NA
Location:  51.02°N, 4.2°E
Report Text: EBAW 210720Z 21013KT 9999 -SHRA SCT016 BKN039 13/10 Q1006 TEMPO 21015G25KT BKN014
Loading
Personal Weather Stations






























Interactive Weather Map
Tropical Storm Tracking
New forecast layout! Learn more

10-Day Weather Forecast

Advertisements
Track Severe Weather on mobile